This is the latest recevied weather packets stored in our database for station/object VK5TRM-14. If no packets are shown the sender has not sent any weather packets the latest 10 day(s).
| Time | Temp. | Humidity | Pressure | Rain* | Wind** | Luminosity | Snow |
|---|---|---|---|---|---|---|---|
| 1778044505 | 19.44° C | 50% | 1020.9 hPa | 0 mm | - | - | - |
| 1778043605 | 20° C | 49% | 1021.1 hPa | 0 mm | - | - | - |
| 1778042705 | 20° C | 49% | 1021.1 hPa | 0 mm | - | - | - |
| 1778041806 | 18.89° C | 52% | 1021.4 hPa | 0 mm | - | - | - |
| 1778040905 | 18.89° C | 52% | 1021.4 hPa | 0 mm | - | - | - |
| 1778040005 | 18.89° C | 50% | 1021.7 hPa | 0 mm | - | - | - |
| 1778039105 | 18.89° C | 50% | 1021.7 hPa | 0 mm | - | - | - |
| 1778038206 | 18.33° C | 52% | 1022.1 hPa | 0 mm | - | - | - |
| 1778037305 | 18.33° C | 52% | 1022.1 hPa | 0 mm | - | - | - |
| 1778036405 | 17.78° C | 50% | 1022.6 hPa | 0 mm | - | - | - |
| 1778035505 | 17.78° C | 50% | 1022.6 hPa | 0 mm | - | - | - |
| 1778034605 | 17.78° C | 53% | 1023.1 hPa | 0 mm | - | - | - |
| 1778033706 | 17.78° C | 53% | 1023.1 hPa | 0 mm | - | - | - |
| 1778032805 | 16.67° C | 59% | 1023.5 hPa | 0 mm | - | - | - |
| 1778031905 | 15° C | 74% | 1024 hPa | 0 mm | - | - | - |
| 1778024705 | 15° C | 74% | 1024 hPa | 0 mm | - | - | - |
| 1778023805 | 14.44° C | 83% | 1023.9 hPa | 0 mm | - | - | - |
| 1778022905 | 14.44° C | 83% | 1023.9 hPa | 0 mm | - | - | - |
| 1778022005 | 12.22° C | 95% | 1023.8 hPa | 0 mm | - | - | - |
| 1778021106 | 12.22° C | 95% | 1023.8 hPa | 0 mm | - | - | - |
| 1778020205 | 9.44° C | 96% | 1023.5 hPa | 0 mm | - | - | - |
| 1778019305 | 9.44° C | 96% | 1023.5 hPa | 0 mm | - | - | - |
| 1778018404 | 9.44° C | 97% | 1023.3 hPa | 0 mm | - | - | - |
| 1778017506 | 9.44° C | 97% | 1023.3 hPa | 0 mm | - | - | - |
| 1778016605 | 10° C | 97% | 1023.2 hPa | 0 mm | - | - | - |
* Rain since midnight (hover to see other rain measurements)
** Current wind speed in m/s (hover to see current wind gust speed)